createdAt,value
2019-02-18T06:25:19.039Z,4.78
2019-02-18T06:26:19.007Z,4.77
2019-02-18T06:27:18.996Z,4.70
2019-02-18T06:28:19.004Z,4.67
2019-02-18T06:29:18.974Z,4.78
2019-02-18T06:30:18.964Z,4.75
2019-02-18T06:31:18.963Z,4.72
2019-02-18T06:32:18.947Z,4.60
2019-02-18T06:33:18.951Z,4.70
2019-02-18T06:34:18.921Z,4.69
2019-02-18T06:35:25.957Z,4.73
2019-02-18T06:36:18.905Z,4.70
2019-02-18T06:37:18.896Z,4.75
2019-02-18T06:38:18.904Z,4.75
2019-02-18T06:39:18.911Z,4.77
2019-02-18T06:40:18.874Z,4.75
2019-02-18T06:41:18.863Z,4.80
2019-02-18T06:42:18.839Z,4.92
2019-02-18T06:43:18.862Z,4.75
2019-02-18T06:44:18.863Z,4.86
2019-02-18T06:45:18.806Z,4.84
2019-02-18T06:46:18.798Z,4.80
2019-02-18T06:47:18.791Z,4.80
2019-02-18T06:48:18.774Z,4.75
2019-02-18T06:49:18.789Z,4.82
2019-02-18T06:50:18.752Z,4.80
2019-02-18T06:51:18.749Z,4.80
2019-02-18T06:52:18.734Z,4.80
2019-02-18T06:53:18.723Z,4.80
2019-02-18T06:54:18.730Z,4.82
2019-02-18T06:55:18.700Z,4.80
2019-02-18T06:56:18.694Z,4.77
2019-02-18T06:57:18.713Z,4.70
2019-02-18T06:58:18.669Z,4.78
2019-02-18T06:59:18.685Z,4.72
2019-02-18T07:00:18.647Z,4.75
2019-02-18T07:01:18.650Z,4.78
2019-02-18T07:02:18.626Z,4.75
2019-02-18T07:03:18.734Z,4.77
2019-02-18T07:04:18.623Z,4.70
2019-02-18T07:05:18.594Z,4.77
2019-02-18T07:06:18.599Z,4.69
2019-02-18T07:07:18.583Z,4.75
2019-02-18T07:08:18.565Z,4.75
2019-02-18T07:09:18.590Z,4.66
2019-02-18T07:10:18.543Z,4.69
2019-02-18T07:11:18.543Z,4.78
2019-02-18T07:12:19.275Z,4.73
2019-02-18T07:13:18.516Z,4.78
2019-02-18T07:14:18.520Z,4.80
2019-02-18T07:15:18.491Z,4.84
2019-02-18T07:16:18.486Z,4.80
2019-02-18T07:17:18.476Z,4.84
2019-02-18T07:18:18.467Z,4.80
2019-02-18T07:19:18.471Z,4.82
2019-02-18T07:20:18.439Z,4.89
2019-02-18T07:21:18.433Z,4.91
2019-02-18T07:22:18.635Z,4.91
2019-02-18T07:23:18.405Z,4.96
2019-02-18T07:24:18.411Z,5.00
2019-02-18T07:25:18.411Z,4.96
2019-02-18T07:26:18.378Z,5.03
2019-02-18T07:27:18.365Z,5.02
2019-02-18T07:28:18.354Z,5.04
2019-02-18T07:29:18.343Z,5.07
2019-02-18T07:30:18.351Z,5.06
2019-02-18T07:31:18.329Z,5.20
2019-02-18T07:32:18.313Z,5.22
2019-02-18T07:33:18.304Z,5.18
2019-02-18T07:34:18.299Z,5.27
2019-02-18T07:35:18.300Z,5.21
2019-02-18T07:36:18.271Z,5.31
2019-02-18T07:37:18.304Z,5.30
2019-02-18T07:38:18.251Z,5.22
2019-02-18T07:39:18.243Z,5.33
2019-02-18T07:40:18.248Z,5.31
2019-02-18T07:41:18.218Z,5.28
2019-02-18T07:42:18.212Z,5.45
2019-02-18T07:43:18.214Z,5.39
2019-02-18T07:44:18.189Z,5.38
2019-02-18T07:45:18.194Z,5.39
2019-02-18T07:46:18.164Z,5.39
2019-02-18T07:47:18.170Z,5.36
2019-02-18T07:48:18.157Z,5.46
2019-02-18T07:49:18.135Z,5.53
2019-02-18T07:50:20.987Z,5.54
2019-02-18T07:51:18.114Z,5.57
2019-02-18T07:52:18.102Z,5.63
2019-02-18T07:53:18.092Z,5.71
2019-02-18T07:54:18.087Z,5.68
2019-02-18T07:55:18.100Z,5.72
2019-02-18T07:56:18.061Z,5.75
2019-02-18T07:57:18.051Z,5.82
2019-02-18T07:58:18.056Z,5.90
2019-02-18T07:59:18.029Z,5.85
2019-02-18T08:00:18.027Z,5.91
2019-02-18T08:01:18.025Z,5.96
2019-02-18T08:02:18.011Z,5.97
2019-02-18T08:03:17.992Z,6.06
2019-02-18T08:04:17.985Z,6.09
2019-02-18T08:05:17.970Z,6.11
2019-02-18T08:06:17.986Z,6.21
2019-02-18T08:07:17.982Z,6.21
2019-02-18T08:08:17.939Z,6.37
2019-02-18T08:09:17.927Z,6.41
2019-02-18T08:10:17.916Z,6.51
2019-02-18T08:11:17.925Z,6.62
2019-02-18T08:12:17.904Z,6.77
2019-02-18T08:13:17.888Z,6.85
2019-02-18T08:14:17.885Z,6.79
2019-02-18T08:15:17.867Z,7.03
2019-02-18T08:16:17.896Z,7.12
2019-02-18T08:17:17.846Z,7.21
2019-02-18T08:18:17.837Z,7.39
2019-02-18T08:19:17.837Z,7.60
2019-02-18T08:20:17.824Z,7.71
2019-02-18T08:21:17.827Z,7.90
2019-02-18T08:22:17.795Z,7.97
2019-02-18T08:23:17.783Z,8.10
2019-02-18T08:24:17.777Z,8.22
2019-02-18T08:25:17.763Z,8.26
2019-02-18T08:26:17.776Z,8.37
2019-02-18T08:27:17.742Z,8.50
2019-02-18T08:28:17.732Z,8.62
2019-02-18T08:29:17.827Z,8.91
2019-02-18T08:30:17.708Z,8.86
2019-02-18T08:31:17.721Z,9.01
2019-02-18T08:32:17.704Z,9.18
2019-02-18T08:33:17.680Z,9.21
2019-02-18T08:34:17.688Z,9.15
2019-02-18T08:35:17.675Z,9.35
2019-02-18T08:36:17.673Z,9.43
2019-02-18T08:37:17.634Z,9.60
2019-02-18T08:38:17.646Z,9.71
2019-02-18T08:39:17.619Z,9.78
2019-02-18T08:40:22.346Z,9.87
2019-02-18T08:41:18.611Z,9.83
2019-02-18T08:42:17.581Z,9.97
2019-02-18T08:43:17.586Z,10.09
2019-02-18T08:44:17.568Z,10.33
2019-02-18T08:45:17.548Z,10.56
2019-02-18T08:46:17.626Z,10.63
2019-02-18T08:47:17.528Z,10.82
2019-02-18T08:48:17.519Z,11.06
2019-02-18T08:49:17.511Z,10.92
2019-02-18T08:50:17.502Z,10.94
2019-02-18T08:51:17.515Z,11.02
2019-02-18T08:52:17.478Z,11.17
2019-02-18T08:53:17.463Z,11.35
2019-02-18T08:54:17.463Z,11.55
2019-02-18T08:55:17.439Z,11.51
2019-02-18T08:56:17.431Z,11.55
2019-02-18T08:57:17.433Z,11.72
2019-02-18T08:58:17.410Z,11.57
2019-02-18T08:59:17.402Z,11.43
2019-02-18T09:00:17.390Z,11.60
2019-02-18T09:01:17.380Z,11.73
2019-02-18T09:02:17.391Z,11.79
2019-02-18T09:03:17.353Z,11.82
2019-02-18T09:04:17.353Z,12.16
2019-02-18T09:05:17.397Z,12.38
2019-02-18T09:06:17.315Z,12.47
2019-02-18T09:07:17.335Z,12.68
2019-02-18T09:08:17.296Z,12.74
2019-02-18T09:09:17.296Z,12.82
2019-02-18T09:10:17.282Z,12.79
2019-02-18T09:11:17.282Z,12.71
2019-02-18T09:12:17.254Z,12.72
2019-02-18T09:13:17.257Z,12.72
2019-02-18T09:14:17.232Z,13.03
2019-02-18T09:15:17.232Z,12.85
2019-02-18T09:16:17.211Z,13.00
2019-02-18T09:17:17.216Z,13.04
2019-02-18T09:18:17.190Z,13.15
2019-02-18T09:19:17.179Z,13.10
2019-02-18T09:20:17.168Z,13.20
2019-02-18T09:21:17.155Z,13.25
2019-02-18T09:22:17.176Z,13.08
2019-02-18T09:23:17.131Z,13.23
2019-02-18T09:24:17.124Z,13.23
2019-02-18T09:25:17.191Z,13.26
2019-02-18T09:26:17.113Z,13.30
2019-02-18T09:27:17.242Z,13.29
2019-02-18T09:28:17.170Z,13.41
2019-02-18T09:29:17.068Z,13.81
2019-02-18T09:30:17.059Z,13.81
2019-02-18T09:31:17.055Z,13.88
2019-02-18T09:32:17.053Z,13.71
2019-02-18T09:33:17.044Z,13.95
2019-02-18T09:34:17.063Z,14.32
2019-02-18T09:35:17.003Z,14.35
2019-02-18T09:36:16.999Z,14.60
2019-02-18T09:37:16.993Z,14.47
2019-02-18T09:38:24.518Z,14.45
2019-02-18T09:39:17.958Z,14.64
2019-02-18T09:40:16.950Z,14.81
2019-02-18T09:41:16.938Z,15.07
2019-02-18T09:42:16.931Z,15.07
2019-02-18T09:43:16.948Z,15.35
2019-02-18T09:44:16.909Z,15.39
2019-02-18T09:45:16.898Z,15.36
2019-02-18T09:46:16.906Z,15.35
2019-02-18T09:47:16.887Z,14.70
2019-02-18T09:48:16.884Z,14.77
2019-02-18T09:49:16.852Z,14.91
2019-02-18T09:50:16.853Z,15.43
2019-02-18T09:51:16.834Z,15.89
2019-02-18T09:52:16.833Z,16.15
2019-02-18T09:53:16.826Z,16.05
2019-02-18T09:54:16.799Z,16.05
2019-02-18T09:55:16.790Z,16.11
2019-02-18T09:56:16.793Z,16.21
2019-02-18T09:57:16.773Z,16.82
2019-02-18T09:58:16.787Z,16.85
2019-02-18T09:59:16.748Z,17.00
2019-02-18T10:00:16.737Z,17.22
2019-02-18T10:01:16.740Z,17.49
2019-02-18T10:02:16.716Z,17.21
2019-02-18T10:03:16.720Z,17.23
2019-02-18T10:04:16.691Z,17.58
2019-02-18T10:05:16.681Z,17.25
2019-02-18T10:06:16.680Z,16.86
2019-02-18T10:07:16.660Z,16.56
2019-02-18T10:08:16.669Z,16.85
2019-02-18T10:09:16.638Z,17.25
2019-02-18T10:10:16.636Z,17.44
2019-02-18T10:11:16.621Z,17.93
2019-02-18T10:12:18.723Z,18.05
2019-02-18T10:13:16.621Z,18.25
2019-02-18T10:14:16.588Z,17.99
2019-02-18T10:15:16.573Z,17.89
2019-02-18T10:16:16.564Z,18.05
2019-02-18T10:17:16.555Z,17.92
2019-02-18T10:18:16.570Z,17.59
2019-02-18T10:19:16.530Z,17.71
2019-02-18T10:20:16.525Z,18.05
2019-02-18T10:21:16.511Z,18.54
2019-02-18T10:22:16.505Z,19.02
2019-02-18T10:23:16.526Z,18.67
2019-02-18T10:24:16.493Z,18.73
2019-02-18T10:25:16.469Z,18.39
2019-02-18T10:26:16.466Z,18.08
2019-02-18T10:27:16.451Z,17.81
2019-02-18T10:28:16.436Z,17.66
2019-02-18T10:29:16.443Z,17.70
2019-02-18T10:30:16.415Z,17.58
2019-02-18T10:31:16.419Z,17.66
2019-02-18T10:32:16.399Z,17.90
2019-02-18T10:33:16.388Z,18.30
2019-02-18T10:34:16.396Z,17.96
2019-02-18T10:35:16.366Z,17.66
2019-02-18T10:36:16.353Z,18.10
2019-02-18T10:37:16.358Z,18.18
2019-02-18T10:38:16.331Z,18.07
2019-02-18T10:39:16.343Z,18.30
2019-02-18T10:40:16.319Z,18.48
2019-02-18T10:41:16.303Z,19.06
2019-02-18T10:42:16.287Z,19.71
2019-02-18T10:43:16.298Z,20.29
2019-02-18T10:44:16.299Z,20.57
2019-02-18T10:45:16.259Z,20.74
2019-02-18T10:46:16.248Z,20.59
2019-02-18T10:47:16.240Z,20.57
2019-02-18T10:48:16.226Z,20.55
2019-02-18T10:49:19.770Z,20.41
2019-02-18T10:50:17.209Z,20.48
2019-02-18T10:51:16.194Z,20.76
2019-02-18T10:52:16.188Z,20.33
2019-02-18T10:53:16.175Z,20.61
2019-02-18T10:54:16.182Z,20.24
2019-02-18T10:55:16.174Z,19.91
2019-02-18T10:56:16.138Z,19.81
2019-02-18T10:57:16.128Z,19.22
2019-02-18T10:58:16.122Z,19.22
2019-02-18T10:59:16.136Z,19.22
2019-02-18T11:00:16.097Z,19.62
2019-02-18T11:01:16.099Z,20.06
2019-02-18T11:02:16.076Z,20.43
2019-02-18T11:03:16.068Z,20.52
2019-02-18T11:04:16.062Z,21.03
2019-02-18T11:05:16.066Z,21.43
2019-02-18T11:06:16.032Z,21.21
2019-02-18T11:07:16.033Z,21.47
2019-02-18T11:08:16.013Z,21.69
2019-02-18T11:09:16.000Z,21.49
2019-02-18T11:10:16.006Z,21.52
2019-02-18T11:11:17.254Z,21.64
2019-02-18T11:12:15.970Z,21.03
2019-02-18T11:13:15.955Z,20.97
2019-02-18T11:14:15.969Z,21.43
2019-02-18T11:15:15.964Z,21.90
2019-02-18T11:16:15.929Z,22.36
2019-02-18T11:17:15.918Z,22.85
2019-02-18T11:18:15.912Z,23.25
2019-02-18T11:19:17.570Z,23.58
2019-02-18T11:20:15.900Z,24.05
2019-02-18T11:21:15.892Z,24.53
2019-02-18T11:22:15.890Z,24.24
2019-02-18T11:23:15.851Z,24.45
2019-02-18T11:24:15.844Z,24.85
2019-02-18T11:25:15.849Z,24.98
2019-02-18T11:26:15.821Z,25.17
2019-02-18T11:27:15.810Z,25.42
2019-02-18T11:28:15.812Z,24.22
2019-02-18T11:29:15.793Z,24.42
2019-02-18T11:30:15.812Z,24.91
2019-02-18T11:31:15.771Z,24.78
2019-02-18T11:32:15.759Z,24.93
2019-02-18T11:33:15.747Z,25.70
2019-02-18T11:34:15.781Z,26.44
2019-02-18T11:35:15.732Z,26.33
2019-02-18T11:36:15.738Z,26.30
2019-02-18T11:37:15.706Z,25.98
2019-02-18T11:38:15.697Z,26.25
2019-02-18T11:39:15.690Z,25.97
2019-02-18T11:40:15.685Z,25.94
2019-02-18T11:41:15.723Z,26.06
2019-02-18T11:42:15.653Z,26.29
2019-02-18T11:43:15.647Z,25.30
2019-02-18T11:44:15.637Z,24.88
2019-02-18T11:45:15.625Z,24.03
2019-02-18T11:46:15.644Z,23.47
2019-02-18T11:47:15.604Z,22.35
2019-02-18T11:48:15.593Z,21.69
2019-02-18T11:49:15.597Z,21.07
2019-02-18T11:50:15.571Z,20.28
2019-02-18T11:51:15.580Z,19.77
2019-02-18T11:52:15.564Z,19.63
2019-02-18T11:53:15.621Z,19.65
2019-02-18T11:54:15.538Z,19.37
2019-02-18T11:55:15.519Z,19.00
2019-02-18T11:56:15.533Z,18.84
2019-02-18T11:57:15.499Z,19.41
2019-02-18T11:58:15.503Z,20.28
2019-02-18T11:59:24.107Z,20.91
2019-02-18T12:00:16.465Z,21.71
2019-02-18T12:01:15.474Z,22.67
2019-02-18T12:02:15.446Z,22.67
2019-02-18T12:03:15.432Z,22.27
2019-02-18T12:04:15.435Z,23.19
2019-02-18T12:05:15.420Z,23.60
2019-02-18T12:06:15.419Z,23.95
2019-02-18T12:07:15.395Z,24.08
2019-02-18T12:08:15.385Z,24.39
2019-02-18T12:09:17.761Z,24.22
2019-02-18T12:10:15.372Z,24.34
2019-02-18T12:11:15.368Z,24.37
2019-02-18T12:12:15.339Z,24.39
2019-02-18T12:13:15.331Z,24.68
2019-02-18T12:14:15.319Z,24.60
2019-02-18T12:15:15.309Z,24.42
2019-02-18T12:16:15.330Z,24.57
2019-02-18T12:17:20.574Z,24.32
2019-02-18T12:18:16.282Z,24.28
2019-02-18T12:19:15.266Z,24.39
2019-02-18T12:20:15.258Z,24.81
2019-02-18T12:21:15.264Z,24.96
2019-02-18T12:22:15.248Z,24.12
2019-02-18T12:23:15.229Z,24.15
2019-02-18T12:24:15.220Z,23.39
2019-02-18T12:25:15.214Z,23.15
2019-02-18T12:26:15.226Z,23.22
2019-02-18T12:27:15.187Z,23.17
2019-02-18T12:28:15.187Z,22.62
2019-02-18T12:29:15.165Z,21.61
2019-02-18T12:30:15.160Z,20.97
2019-02-18T12:31:15.149Z,21.04
2019-02-18T12:32:15.153Z,20.88
2019-02-18T12:33:15.125Z,20.31
2019-02-18T12:34:15.124Z,19.66
2019-02-18T12:35:15.108Z,19.16
2019-02-18T12:36:15.095Z,18.54
2019-02-18T12:37:15.097Z,18.27
2019-02-18T12:38:17.350Z,17.96
2019-02-18T12:39:15.063Z,17.75
2019-02-18T12:40:15.140Z,17.36
2019-02-18T12:41:15.049Z,17.25
2019-02-18T12:42:15.059Z,17.25
2019-02-18T12:43:15.021Z,17.15
2019-02-18T12:44:15.011Z,17.12
2019-02-18T12:45:14.998Z,17.07
2019-02-18T12:46:16.035Z,16.97
2019-02-18T12:47:15.011Z,16.89
2019-02-18T12:48:14.966Z,16.78
2019-02-18T12:49:14.957Z,16.93
2019-02-18T12:50:14.952Z,17.03
2019-02-18T12:51:14.936Z,17.01
2019-02-18T12:52:14.942Z,17.03
2019-02-18T12:53:14.926Z,16.96
2019-02-18T12:54:14.903Z,16.97
2019-02-18T12:55:15.207Z,16.94
2019-02-18T12:56:14.881Z,16.91
2019-02-18T12:57:14.890Z,16.86
2019-02-18T12:58:14.859Z,16.85
2019-02-18T12:59:14.863Z,16.94
2019-02-18T13:00:14.956Z,16.91
2019-02-18T13:01:14.833Z,16.98
2019-02-18T13:02:14.853Z,16.96
2019-02-18T13:03:14.807Z,16.85
2019-02-18T13:04:14.795Z,16.86
2019-02-18T13:05:14.795Z,16.83
2019-02-18T13:06:14.781Z,16.76
2019-02-18T13:07:14.766Z,16.67
2019-02-18T13:08:14.773Z,16.76
2019-02-18T13:09:14.742Z,16.67
2019-02-18T13:10:14.732Z,16.68
2019-02-18T13:11:14.748Z,16.71
2019-02-18T13:12:14.708Z,16.71
2019-02-18T13:13:14.713Z,16.71
2019-02-18T13:14:14.685Z,16.71
2019-02-18T13:15:14.675Z,16.73
2019-02-18T13:16:14.668Z,16.66
2019-02-18T13:17:14.672Z,16.70
2019-02-18T13:18:14.667Z,16.60
2019-02-18T13:19:14.633Z,16.60
2019-02-18T13:20:14.623Z,16.60
2019-02-18T13:21:14.613Z,16.60
2019-02-18T13:22:14.604Z,16.67
2019-02-18T13:23:14.615Z,16.66
2019-02-18T13:24:14.595Z,16.63
2019-02-18T13:25:14.578Z,16.66
2019-02-18T13:26:14.562Z,16.70
2019-02-18T13:27:14.550Z,16.78
2019-02-18T13:28:14.562Z,16.67
2019-02-18T13:29:14.537Z,16.60
2019-02-18T13:30:14.532Z,16.58
2019-02-18T13:31:14.514Z,16.67
2019-02-18T13:32:14.544Z,16.60
2019-02-18T13:33:14.507Z,16.75
2019-02-18T13:34:14.480Z,16.66
2019-02-18T13:35:14.467Z,16.63
2019-02-18T13:36:14.468Z,16.67
2019-02-18T13:37:14.452Z,16.67
2019-02-18T13:38:14.459Z,16.64
2019-02-18T13:39:14.430Z,16.71
2019-02-18T13:40:14.413Z,16.64
2019-02-18T13:41:14.401Z,16.63
2019-02-18T13:42:14.408Z,16.68
2019-02-18T13:43:14.404Z,16.57
2019-02-18T13:44:14.372Z,16.56
2019-02-18T13:45:14.362Z,16.58
2019-02-18T13:46:14.348Z,16.50
2019-02-18T13:47:14.337Z,16.50
2019-02-18T13:48:14.361Z,16.56
2019-02-18T13:49:14.319Z,16.52
2019-02-18T13:50:14.308Z,16.49
2019-02-18T13:51:14.297Z,16.57
2019-02-18T13:52:14.286Z,16.63
2019-02-18T13:53:14.295Z,16.56
2019-02-18T13:54:14.293Z,16.56
2019-02-18T13:55:14.263Z,16.57
2019-02-18T13:56:14.243Z,16.60
2019-02-18T13:57:14.234Z,16.57
2019-02-18T13:58:14.239Z,16.56
2019-02-18T13:59:14.210Z,16.56
2019-02-18T14:00:14.216Z,16.48
2019-02-18T14:01:14.197Z,16.56
2019-02-18T14:02:14.184Z,16.58
2019-02-18T14:03:14.189Z,16.56
2019-02-18T14:04:14.159Z,16.50
2019-02-18T14:05:14.148Z,16.53
2019-02-18T14:06:14.164Z,16.48
2019-02-18T14:07:14.132Z,16.49
2019-02-18T14:08:14.133Z,16.48
2019-02-18T14:09:14.110Z,16.56
2019-02-18T14:10:14.094Z,16.45
2019-02-18T14:11:14.083Z,16.50
2019-02-18T14:12:16.045Z,16.46
2019-02-18T14:13:14.084Z,16.52
2019-02-18T14:14:14.054Z,16.46
2019-02-18T14:15:14.041Z,16.50
2019-02-18T14:16:14.040Z,16.52
2019-02-18T14:17:14.018Z,16.52
2019-02-18T14:18:14.041Z,16.45
2019-02-18T14:19:13.998Z,16.46
2019-02-18T14:20:14.273Z,16.41
2019-02-18T14:21:13.980Z,16.35
2019-02-18T14:22:13.966Z,16.45
2019-02-18T14:23:15.846Z,16.41
2019-02-18T14:24:13.950Z,16.35
2019-02-18T14:25:13.944Z,16.33
2019-02-18T14:26:13.926Z,16.39
2019-02-18T14:27:13.913Z,16.39
2019-02-18T14:28:13.921Z,16.42
2019-02-18T14:29:13.891Z,16.38
2019-02-18T14:30:13.882Z,16.25
2019-02-18T14:31:13.888Z,16.34
2019-02-18T14:32:13.860Z,16.39
2019-02-18T14:33:13.867Z,16.30
2019-02-18T14:34:13.839Z,16.30
2019-02-18T14:35:13.827Z,16.35
2019-02-18T14:36:13.823Z,16.30
2019-02-18T14:37:13.827Z,16.31
2019-02-18T14:38:13.815Z,16.42
2019-02-18T14:39:13.787Z,16.41
2019-02-18T14:40:13.776Z,16.34
2019-02-18T14:41:13.766Z,16.43
2019-02-18T14:42:13.761Z,16.39
2019-02-18T14:43:13.786Z,16.31
2019-02-18T14:44:13.741Z,16.27
2019-02-18T14:45:13.722Z,16.41
2019-02-18T14:46:13.713Z,16.42
2019-02-18T14:47:13.706Z,16.45
2019-02-18T14:48:13.699Z,16.39
2019-02-18T14:49:13.697Z,16.35
2019-02-18T14:50:13.669Z,16.42
2019-02-18T14:51:13.659Z,16.35
2019-02-18T14:52:13.646Z,16.46
2019-02-18T14:53:13.641Z,16.28
2019-02-18T14:54:13.659Z,16.30
2019-02-18T14:55:13.614Z,16.42
2019-02-18T14:56:13.605Z,16.33
2019-02-18T14:57:13.592Z,16.30
2019-02-18T14:58:13.581Z,16.41
2019-02-18T14:59:13.588Z,16.34
2019-02-18T15:00:13.578Z,16.24
2019-02-18T15:01:13.550Z,16.30
2019-02-18T15:02:13.538Z,16.30
2019-02-18T15:03:13.526Z,16.20
2019-02-18T15:04:13.534Z,16.20
2019-02-18T15:05:13.512Z,16.12
2019-02-18T15:06:13.516Z,16.01
2019-02-18T15:07:13.486Z,16.11
2019-02-18T15:08:13.477Z,16.07
2019-02-18T15:09:13.480Z,15.86
2019-02-18T15:10:13.453Z,15.93
2019-02-18T15:11:13.452Z,15.90
2019-02-18T15:12:13.441Z,15.86
2019-02-18T15:13:13.422Z,15.80
2019-02-18T15:14:13.425Z,15.83
2019-02-18T15:15:13.397Z,15.75
2019-02-18T15:16:13.388Z,15.65
2019-02-18T15:17:13.378Z,15.69
2019-02-18T15:18:13.370Z,15.68
2019-02-18T15:19:13.377Z,15.60
2019-02-18T15:20:13.348Z,15.57
2019-02-18T15:21:13.341Z,15.60
2019-02-18T15:22:13.324Z,15.54
2019-02-18T15:23:13.315Z,15.53
2019-02-18T15:24:13.332Z,15.54
2019-02-18T15:25:13.297Z,15.54
2019-02-18T15:26:13.280Z,15.53
2019-02-18T15:27:13.280Z,15.51
2019-02-18T15:28:13.258Z,15.44
2019-02-18T15:29:13.275Z,15.44
2019-02-18T15:30:13.277Z,15.49
2019-02-18T15:31:13.264Z,15.41
2019-02-18T15:32:13.220Z,15.36
2019-02-18T15:33:13.205Z,15.41
2019-02-18T15:34:13.312Z,15.36
2019-02-18T15:35:13.198Z,15.32
2019-02-18T15:36:13.186Z,15.35
2019-02-18T15:37:13.164Z,15.32
2019-02-18T15:38:13.153Z,15.38
2019-02-18T15:39:13.168Z,15.31
2019-02-18T15:40:13.137Z,15.28
2019-02-18T15:41:13.138Z,15.28
2019-02-18T15:42:13.118Z,15.25
2019-02-18T15:43:13.097Z,15.19
2019-02-18T15:44:13.087Z,15.21
2019-02-18T15:45:13.093Z,15.21
2019-02-18T15:46:13.064Z,15.13
2019-02-18T15:47:13.067Z,15.09
2019-02-18T15:48:13.055Z,15.07
2019-02-18T15:49:13.033Z,14.99
2019-02-18T15:50:13.041Z,15.10
2019-02-18T15:51:13.011Z,14.99
2019-02-18T15:52:13.001Z,15.01
2019-02-18T15:53:13.002Z,15.03
2019-02-18T15:54:12.988Z,15.07
2019-02-18T15:55:12.995Z,14.96
2019-02-18T15:56:12.957Z,14.88
2019-02-18T15:57:12.946Z,14.80
2019-02-18T15:58:12.935Z,14.84
2019-02-18T15:59:12.932Z,14.83
2019-02-18T16:00:12.944Z,14.80
2019-02-18T16:01:12.901Z,14.75
2019-02-18T16:02:12.894Z,14.72
2019-02-18T16:03:12.882Z,14.70
2019-02-18T16:04:12.870Z,14.68
2019-02-18T16:05:12.877Z,14.65
2019-02-18T16:06:12.936Z,14.58
2019-02-18T16:07:12.841Z,14.68
2019-02-18T16:08:12.837Z,14.64
2019-02-18T16:09:12.816Z,14.62
2019-02-18T16:10:12.822Z,14.52
2019-02-18T16:11:12.795Z,14.62
2019-02-18T16:12:12.802Z,14.52
2019-02-18T16:13:12.773Z,14.54
2019-02-18T16:14:12.766Z,14.57
2019-02-18T16:15:12.767Z,14.47
2019-02-18T16:16:12.741Z,14.52
2019-02-18T16:17:12.732Z,14.42
2019-02-18T16:18:12.728Z,14.42
2019-02-18T16:19:12.718Z,14.50
2019-02-18T16:20:12.719Z,14.40
2019-02-18T16:21:12.691Z,14.39
2019-02-18T16:22:12.677Z,14.29
2019-02-18T16:23:12.665Z,14.27
2019-02-18T16:24:19.732Z,14.21
2019-02-18T16:25:13.739Z,14.21
2019-02-18T16:26:12.635Z,14.28
2019-02-18T16:27:12.632Z,14.27
2019-02-18T16:28:12.615Z,14.21
2019-02-18T16:29:12.602Z,14.17
2019-02-18T16:30:12.592Z,14.25
2019-02-18T16:31:12.603Z,14.22
2019-02-18T16:32:12.572Z,14.14
2019-02-18T16:33:12.557Z,14.20
2019-02-18T16:34:12.559Z,14.18
2019-02-18T16:35:12.542Z,14.21
2019-02-18T16:36:12.545Z,14.18
2019-02-18T16:37:12.516Z,14.14
2019-02-18T16:38:12.503Z,14.18
2019-02-18T16:39:12.494Z,14.17
2019-02-18T16:40:12.487Z,14.06
2019-02-18T16:41:12.500Z,14.04
2019-02-18T16:42:12.465Z,14.09
2019-02-18T16:43:12.451Z,14.12
2019-02-18T16:44:12.448Z,14.09
2019-02-18T16:45:12.429Z,14.02
2019-02-18T16:46:12.437Z,13.99
2019-02-18T16:47:12.420Z,13.95
2019-02-18T16:48:12.397Z,13.88
2019-02-18T16:49:12.387Z,13.91
2019-02-18T16:50:12.380Z,13.87
2019-02-18T16:51:12.389Z,13.87
2019-02-18T16:52:12.611Z,13.75
2019-02-18T16:53:12.346Z,13.78
2019-02-18T16:54:12.351Z,13.81
2019-02-18T16:55:12.338Z,13.79
2019-02-18T16:56:12.336Z,13.79
2019-02-18T16:57:12.305Z,13.79
2019-02-18T16:58:12.291Z,13.73
2019-02-18T16:59:12.282Z,13.71
2019-02-18T17:00:12.313Z,13.64
2019-02-18T17:01:12.255Z,13.70
2019-02-18T17:02:12.263Z,13.70
2019-02-18T17:03:12.237Z,13.63
2019-02-18T17:04:12.225Z,13.62
2019-02-18T17:05:12.223Z,13.57
2019-02-18T17:06:12.215Z,13.57
2019-02-18T17:07:12.212Z,13.54
2019-02-18T17:08:12.181Z,13.52
2019-02-18T17:09:12.168Z,13.60
2019-02-18T17:10:12.161Z,13.52
2019-02-18T17:11:12.153Z,13.46
2019-02-18T17:12:12.174Z,13.45
2019-02-18T17:13:12.127Z,13.49
2019-02-18T17:14:12.115Z,13.44
2019-02-18T17:15:12.107Z,13.33
2019-02-18T17:16:12.096Z,13.29
2019-02-18T17:17:12.103Z,13.26
2019-02-18T17:18:12.075Z,13.26
2019-02-18T17:19:12.073Z,13.20
2019-02-18T17:20:12.054Z,13.20
2019-02-18T17:21:12.045Z,13.32
2019-02-18T17:22:12.049Z,13.15
2019-02-18T17:23:12.019Z,13.14
2019-02-18T17:24:12.017Z,13.07
2019-02-18T17:25:12.002Z,13.07
2019-02-18T17:26:11.983Z,13.04
2019-02-18T17:27:11.999Z,13.12
2019-02-18T17:28:11.966Z,13.01
2019-02-18T17:29:11.954Z,13.12
2019-02-18T17:30:11.946Z,13.00
2019-02-18T17:31:11.940Z,12.90
2019-02-18T17:32:11.934Z,12.87
2019-02-18T17:33:11.912Z,13.03
2019-02-18T17:34:11.895Z,12.87
2019-02-18T17:35:12.133Z,12.87
2019-02-18T17:36:11.890Z,12.90
2019-02-18T17:37:11.895Z,12.83
2019-02-18T17:38:11.851Z,12.83
2019-02-18T17:39:11.846Z,12.82
2019-02-18T17:40:11.837Z,12.85
2019-02-18T17:41:11.821Z,12.79
2019-02-18T17:42:11.808Z,12.79
2019-02-18T17:43:16.415Z,12.87
2019-02-18T17:44:19.816Z,12.79
2019-02-18T17:45:12.772Z,12.82
2019-02-18T17:46:11.780Z,12.78
2019-02-18T17:47:11.755Z,12.82
2019-02-18T17:48:11.763Z,12.86
2019-02-18T17:49:11.730Z,12.78
2019-02-18T17:50:11.719Z,12.74
2019-02-18T17:51:11.708Z,12.83
2019-02-18T17:52:11.717Z,12.75
2019-02-18T17:53:11.716Z,12.74
2019-02-18T17:54:11.682Z,12.75
2019-02-18T17:55:11.668Z,12.72
2019-02-18T17:56:11.655Z,12.79
2019-02-18T17:57:11.641Z,12.78
2019-02-18T17:58:11.661Z,12.68
2019-02-18T17:59:11.621Z,12.65
2019-02-18T18:00:11.610Z,12.59
2019-02-18T18:01:11.597Z,12.54
2019-02-18T18:02:11.585Z,12.53
2019-02-18T18:03:11.595Z,12.52
2019-02-18T18:04:11.565Z,12.56
2019-02-18T18:05:11.555Z,12.50
2019-02-18T18:06:11.560Z,12.52
2019-02-18T18:07:11.534Z,12.53
2019-02-18T18:08:11.536Z,12.57
2019-02-18T18:09:11.508Z,12.56
2019-02-18T18:10:11.504Z,12.50
2019-02-18T18:11:11.489Z,12.46
2019-02-18T18:12:11.476Z,12.59
2019-02-18T18:13:11.622Z,12.39
2019-02-18T18:14:11.458Z,12.42
2019-02-18T18:15:11.447Z,12.45
2019-02-18T18:16:11.434Z,12.42
2019-02-18T18:17:11.429Z,12.38
2019-02-18T18:18:11.411Z,12.31
2019-02-18T18:19:11.414Z,12.32
2019-02-18T18:20:11.409Z,12.28
2019-02-18T18:21:11.378Z,12.29
2019-02-18T18:22:11.376Z,12.28
2019-02-18T18:23:11.352Z,12.20
2019-02-18T18:24:11.359Z,12.23
2019-02-18T18:25:11.331Z,12.17
2019-02-18T18:26:11.321Z,12.23
2019-02-18T18:27:11.323Z,12.17
2019-02-18T18:28:11.300Z,12.16
2019-02-18T18:29:11.303Z,12.14
2019-02-18T18:30:11.275Z,12.17
2019-02-18T18:31:11.262Z,12.17
2019-02-18T18:32:11.254Z,12.14
2019-02-18T18:33:11.245Z,12.10
2019-02-18T18:34:11.269Z,12.04
2019-02-18T18:35:11.217Z,12.05
2019-02-18T18:36:11.211Z,11.99
2019-02-18T18:37:11.197Z,11.90
2019-02-18T18:38:11.186Z,11.80
2019-02-18T18:39:11.195Z,11.90
2019-02-18T18:40:11.187Z,11.83
2019-02-18T18:41:11.153Z,11.75
2019-02-18T18:42:11.142Z,11.76
2019-02-18T18:43:11.130Z,11.72
2019-02-18T18:44:11.137Z,11.67
2019-02-18T18:45:11.107Z,11.62
2019-02-18T18:46:11.100Z,11.55
2019-02-18T18:47:11.096Z,11.60
2019-02-18T18:48:11.078Z,11.54
2019-02-18T18:49:11.090Z,11.62
2019-02-18T18:50:11.085Z,11.51
2019-02-18T18:51:11.082Z,11.60
2019-02-18T18:52:11.033Z,11.40
2019-02-18T18:53:11.022Z,11.35
2019-02-18T18:54:11.046Z,11.40
2019-02-18T18:55:10.998Z,11.44
2019-02-18T18:56:10.998Z,11.42
2019-02-18T18:57:10.978Z,11.40
2019-02-18T18:58:10.966Z,11.40
2019-02-18T18:59:10.988Z,11.28
2019-02-18T19:00:10.964Z,11.25
2019-02-18T19:01:10.958Z,11.25
2019-02-18T19:02:10.920Z,11.18
2019-02-18T19:03:10.951Z,11.14
2019-02-18T19:04:10.941Z,11.09
2019-02-18T19:05:10.892Z,10.94
2019-02-18T19:06:10.875Z,10.97
2019-02-18T19:07:10.881Z,10.91
2019-02-18T19:08:10.868Z,10.82
2019-02-18T19:09:10.850Z,10.81
2019-02-18T19:10:10.853Z,10.73
2019-02-18T19:11:10.824Z,10.74
2019-02-18T19:12:10.842Z,10.61
2019-02-18T19:13:10.951Z,10.67
2019-02-18T19:14:10.799Z,10.64
2019-02-18T19:15:10.809Z,10.64
2019-02-18T19:16:10.782Z,10.71
2019-02-18T19:17:10.764Z,10.66
2019-02-18T19:18:10.745Z,10.59
2019-02-18T19:19:10.751Z,10.53
2019-02-18T19:20:11.674Z,10.53
2019-02-18T19:21:10.707Z,10.45
2019-02-18T19:22:10.734Z,10.44